Loanhead, United Kingdom
Current Conditions -  °F | °C
As of 4:20 PM on Friday 19 Dec 2014 (Local Time) from EGPH Reporting Station
Rain Showers Rain Showers  
Wind Chill: 29°   Ceiling: Unl
Heat Index: 39°   Visibility: 6mi
Dew Point: 34°   Wind: 22mph
Humidity: 81%   Direction: 270°W
Pressure: 29.71"   Gusts: 38mph
Location:  55.88°N, 3.16°W
Report Text: EGPH 191620Z 27019G33KT 9999 -SHRA FEW015CB 04/01 Q1006
Loading
Personal Weather Stations






























Interactive Weather Map New forecast layout! Learn more

10-Day Weather Forecast

Advertisements
Track Severe Weather on mobile